Time;durP1;ratioP1;P1;durP2;ratioP2;P2;SDS_P1;SDS_P2;PMS_P1;PMS_P2;Temp;Humidity;BMP_temperature;BMP_pressure;BME280_temperature;BME280_humidity;BME280_pressure;Samples;Min_cycle;Max_cycle;Signal;HPM_P1;HPM_P2
2021/05/05 04:58:19;;;;;;;;;;;;;;;7.40;82.94;97049.70;1775647;77;20252;-69
2021/05/05 05:00:47;;;;;;;;;;;;;;;8.26;76.06;97049.13;1776727;78;20609;-70
2021/05/05 05:03:15;;;;;;;;;;;;;;;8.77;73.23;97049.89;1780443;78;20770;-70
2021/05/05 05:05:43;;;;;;;;;;;;;;;9.21;70.68;97061.48;1771372;78;20576;-68
2021/05/05 05:08:11;;;;;;;;;;;;;;;9.58;69.96;97064.07;1776028;79;20474;-66
2021/05/05 05:10:39;;;;;;;;;;;;;;;9.86;68.94;97064.98;1774296;78;20626;-70
2021/05/05 05:13:07;;;;;;;;;;;;;;;10.10;67.69;97058.23;1768226;79;20769;-69
2021/05/05 05:15:35;;;;;;;;;;;;;;;10.32;67.48;97056.74;1775130;78;21922;-71
2021/05/05 05:18:25;;;;;;;;;;;;;;;10.46;68.02;97057.81;1772400;79;20464;-70
2021/05/05 05:20:53;;;;;;;;;;;;;;;10.57;64.02;97054.70;1723260;80;20486;-71
2021/05/05 05:23:21;;;;;;;;;;;;;;;10.74;60.42;97044.70;1715232;80;20524;-69
2021/05/05 05:25:49;;;;;;;;;;;;;;;10.92;59.56;97053.92;1715661;80;20699;-70
2021/05/05 05:28:17;;;;;;;;;;;;;;;11.08;56.93;97045.50;1724137;80;21798;-71
2021/05/05 05:30:45;;;;;;;;;;;;;;;11.23;56.36;97056.01;1709835;81;20404;-68
2021/05/05 05:33:13;;;;;;;;;;;;;;;11.33;56.03;97066.50;1734776;80;20592;-66
2021/05/05 05:35:41;;;;;;;;;;;;;;;11.43;54.37;97067.80;1670086;83;20736;-66
2021/05/05 05:38:09;;;;;;;;;;;;;;;11.54;53.27;97061.98;1671462;83;20656;-67
2021/05/05 05:40:37;;;;;;;;;;;;;;;11.64;54.93;97055.38;1666987;83;21933;-66
2021/05/05 05:43:06;;;;;;;;;;;;;;;11.67;55.30;97052.98;1699148;82;20485;-70
2021/05/05 05:45:35;;;;;;;;;;;;;;;11.68;57.87;97055.09;1720571;80;20599;-68
2021/05/05 05:48:05;;;;;;;;;;;;;;;11.61;59.79;97056.70;1676186;83;20515;-68
2021/05/05 05:50:33;;;;;;;;;;;;;;;11.48;60.52;97052.52;1740030;80;20551;-67
2021/05/05 05:53:01;;;;;;;;;;;;;;;11.32;61.45;97057.02;1741207;80;22231;-72
2021/05/05 05:55:31;;;;;;;;;;;;;;;11.17;62.03;97052.58;1737975;80;20402;-74
2021/05/05 05:57:59;;;;;;;;;;;;;;;11.01;62.63;97058.92;1741900;80;20517;-70
2021/05/05 06:00:26;;;;;;;;;;;;;;;10.91;62.93;97044.45;1738498;80;20730;-70
2021/05/05 06:02:55;;;;;;;;;;;;;;;10.87;63.70;97044.73;1738487;80;20708;-73
2021/05/05 06:05:22;;;;;;;;;;;;;;;10.88;64.01;97038.39;1733415;80;22072;-69
2021/05/05 06:07:50;;;;;;;;;;;;;;;10.92;64.23;97036.31;1733751;80;20545;-75
2021/05/05 06:10:19;;;;;;;;;;;;;;;11.00;64.27;97042.88;1741900;80;20320;-70
2021/05/05 06:12:47;;;;;;;;;;;;;;;11.10;63.94;97040.22;1743179;80;20544;-72
2021/05/05 06:15:15;;;;;;;;;;;;;;;11.23;64.30;97046.28;1720148;80;20580;-72
2021/05/05 06:17:43;;;;;;;;;;;;;;;11.35;63.42;97042.83;1731570;80;21870;-70
2021/05/05 06:20:11;;;;;;;;;;;;;;;11.48;60.70;97034.89;1728811;80;20335;-66
2021/05/05 06:22:41;;;;;;;;;;;;;;;11.62;59.14;97033.27;1729655;80;20548;-71
2021/05/05 06:25:11;;;;;;;;;;;;;;;11.76;58.63;97039.30;1762336;78;20547;-68
2021/05/05 06:27:39;;;;;;;;;;;;;;;11.88;59.76;97030.59;1760880;79;20605;-72
2021/05/05 06:30:08;;;;;;;;;;;;;;;12.02;55.18;97033.69;1740817;80;21989;-68
2021/05/05 06:32:37;;;;;;;;;;;;;;;12.22;55.08;97025.41;1735152;80;20494;-67
2021/05/05 06:35:06;;;;;;;;;;;;;;;12.43;54.61;97029.48;1738107;80;20399;-66
2021/05/05 06:37:34;;;;;;;;;;;;;;;12.63;51.55;97028.02;1766043;78;20558;-66
2021/05/05 06:40:04;;;;;;;;;;;;;;;12.84;51.20;97016.25;1763953;79;20597;-71
2021/05/05 06:42:33;;;;;;;;;;;;;;;13.05;50.85;97020.81;1767521;80;21919;-73
2021/05/05 06:45:01;;;;;;;;;;;;;;;13.23;48.88;97014.09;1766315;78;20587;-73
2021/05/05 06:47:29;;;;;;;;;;;;;;;13.42;48.92;97020.75;1762333;78;20852;-66
2021/05/05 06:49:58;;;;;;;;;;;;;;;13.58;47.86;97008.44;1746640;79;21167;-66
2021/05/05 06:52:26;;;;;;;;;;;;;;;13.77;47.31;97011.64;1749205;78;20605;-71
2021/05/05 06:54:54;;;;;;;;;;;;;;;13.89;47.00;97004.12;1759695;79;21872;-70
2021/05/05 06:57:22;;;;;;;;;;;;;;;14.01;47.68;96997.87;1727024;80;20409;-68
2021/05/05 06:59:50;;;;;;;;;;;;;;;14.09;47.54;96994.59;1751252;79;20380;-69
2021/05/05 07:02:18;;;;;;;;;;;;;;;14.20;46.45;96995.23;1761080;78;20510;-74
2021/05/05 07:04:49;;;;;;;;;;;;;;;14.31;46.17;96994.81;1743274;80;20675;-72
2021/05/05 07:07:16;;;;;;;;;;;;;;;14.45;46.52;96993.58;1749176;80;22613;-74
2021/05/05 07:09:47;;;;;;;;;;;;;;;14.53;46.62;96976.28;1750922;80;20567;-70
2021/05/05 07:12:15;;;;;;;;;;;;;;;14.63;45.87;96981.39;1747274;80;20632;-66
2021/05/05 07:14:43;;;;;;;;;;;;;;;14.72;45.75;96977.02;1750900;78;20691;-72
2021/05/05 07:17:10;;;;;;;;;;;;;;;14.79;45.48;96976.89;1765116;78;20618;-70
2021/05/05 07:19:40;;;;;;;;;;;;;;;14.85;45.91;96966.47;1758168;80;21990;-68
2021/05/05 07:22:08;;;;;;;;;;;;;;;14.93;45.60;96970.31;1748178;79;20268;-68
2021/05/05 07:24:38;;;;;;;;;;;;;;;14.99;45.40;96961.20;1744660;80;20529;-69
2021/05/05 07:27:07;;;;;;;;;;;;;;;15.06;45.80;96952.87;1738876;80;20578;-69
2021/05/05 07:29:36;;;;;;;;;;;;;;;15.12;45.90;96945.91;1736508;81;20468;-68
2021/05/05 07:32:05;;;;;;;;;;;;;;;15.19;44.95;96953.45;1740092;80;22012;-72
2021/05/05 07:34:33;;;;;;;;;;;;;;;15.21;44.86;96932.22;1735182;80;20585;-66
2021/05/05 07:37:07;;;;;;;;;;;;;;;15.26;44.24;96919.44;1742150;80;20500;-69
2021/05/05 07:40:00;;;;;;;;;;;;;;;15.34;43.54;96915.32;1735379;80;20905;-71
2021/05/05 07:47:44;;;;;;;;;;;;;;;15.62;42.89;96922.19;1738334;80;20627;-62
2021/05/05 07:50:12;;;;;;;;;;;;;;;15.71;43.18;96916.95;1716310;80;20494;-62
2021/05/05 07:52:40;;;;;;;;;;;;;;;15.80;44.53;96912.52;1740049;80;20804;-68
2021/05/05 07:55:09;;;;;;;;;;;;;;;15.91;44.96;96913.34;1742017;80;20663;-75
2021/05/05 07:57:37;;;;;;;;;;;;;;;16.02;45.92;96905.94;1740834;80;22064;-69
2021/05/05 08:00:06;;;;;;;;;;;;;;;16.13;46.66;96907.83;1742522;80;20711;-67
2021/05/05 08:02:36;;;;;;;;;;;;;;;16.22;43.42;96906.00;1740115;80;20644;-67
2021/05/05 08:05:05;;;;;;;;;;;;;;;16.28;43.44;96901.60;1742203;80;20719;-67
2021/05/05 08:07:33;;;;;;;;;;;;;;;16.33;44.85;96899.39;1733953;80;21631;-69
2021/05/05 08:10:04;;;;;;;;;;;;;;;16.39;43.79;96896.31;1744779;80;22037;-63
2021/05/05 08:12:32;;;;;;;;;;;;;;;16.49;44.17;96897.16;1736348;80;20478;-66
2021/05/05 08:15:01;;;;;;;;;;;;;;;16.57;44.12;96898.51;1741268;80;20227;-67
2021/05/05 08:17:30;;;;;;;;;;;;;;;16.69;45.39;96895.34;1742347;80;20491;-67
2021/05/05 08:19:59;;;;;;;;;;;;;;;16.81;45.45;96887.59;1738831;78;20724;-69
2021/05/05 08:22:27;;;;;;;;;;;;;;;16.91;45.30;96882.56;1698864;82;21764;-70
2021/05/05 08:24:55;;;;;;;;;;;;;;;17.00;43.90;96884.72;1746059;80;20610;-68
2021/05/05 08:27:23;;;;;;;;;;;;;;;17.05;41.95;96886.69;1735747;80;20497;-68
2021/05/05 08:29:52;;;;;;;;;;;;;;;17.09;41.28;96888.17;1743151;80;20582;-67
2021/05/05 08:32:24;;;;;;;;;;;;;;;17.11;41.65;96881.47;1737890;80;20877;-74
2021/05/05 08:34:54;;;;;;;;;;;;;;;17.16;42.34;96882.66;1740858;80;20631;-72
2021/05/05 08:37:22;;;;;;;;;;;;;;;17.26;39.18;96872.84;1736277;80;20243;-68
2021/05/05 08:39:50;;;;;;;;;;;;;;;17.36;39.26;96872.57;1737022;81;20637;-71
2021/05/05 08:42:18;;;;;;;;;;;;;;;17.51;38.78;96864.13;1733728;80;20588;-66
2021/05/05 08:44:48;;;;;;;;;;;;;;;17.65;37.96;96864.81;1742371;80;20567;-69
2021/05/05 08:47:17;;;;;;;;;;;;;;;17.79;38.32;96856.14;1743784;79;21668;-69
2021/05/05 08:49:46;;;;;;;;;;;;;;;17.90;36.55;96851.30;1740290;80;20480;-71
2021/05/05 08:52:14;;;;;;;;;;;;;;;17.98;38.44;96843.09;1741211;80;20979;-69
2021/05/05 08:54:43;;;;;;;;;;;;;;;18.04;36.81;96842.62;1734872;80;20532;-69
2021/05/05 08:57:15;;;;;;;;;;;;;;;18.10;37.45;96837.37;1750037;80;20531;-71
2021/05/05 08:59:54;;;;;;;;;;;;;;;18.19;38.48;96832.05;1725902;80;21969;-69
2021/05/05 09:02:43;;;;;;;;;;;;;;;18.32;37.27;96829.74;1756294;80;20542;-72
2021/05/05 09:06:09;;;;;;;;;;;;;;;18.43;37.98;96827.54;1733844;80;20395;-75
2021/05/05 09:08:48;;;;;;;;;;;;;;;18.55;36.65;96819.12;1718554;80;20463;-69
2021/05/05 09:11:20;;;;;;;;;;;;;;;18.65;37.81;96822.80;1737620;80;20688;-75
2021/05/05 09:13:53;;;;;;;;;;;;;;;18.71;35.72;96823.41;1724295;80;21951;-70
2021/05/05 09:16:29;;;;;;;;;;;;;;;18.71;36.61;96815.42;1734876;81;20587;-69
2021/05/05 09:19:06;;;;;;;;;;;;;;;18.78;39.59;96809.05;1742042;80;20316;-69
2021/05/05 09:21:40;;;;;;;;;;;;;;;18.95;38.83;96814.83;1737934;80;20757;-72
2021/05/05 09:24:33;;;;;;;;;;;;;;;19.08;38.20;96809.30;1739399;81;20624;-71
2021/05/05 09:27:07;;;;;;;;;;;;;;;19.26;39.44;96813.17;1732254;81;22032;-73
2021/05/05 09:29:39;;;;;;;;;;;;;;;19.48;38.07;96804.35;1734891;81;20512;-70
2021/05/05 09:32:08;;;;;;;;;;;;;;;19.64;37.46;96805.11;1733567;80;20582;-68
2021/05/05 09:34:36;;;;;;;;;;;;;;;19.77;36.82;96800.84;1736226;81;21110;-70
2021/05/05 09:37:08;;;;;;;;;;;;;;;19.92;35.99;96805.34;1738749;80;20493;-71
2021/05/05 09:39:39;;;;;;;;;;;;;;;20.03;36.96;96788.59;1731074;81;21719;-74
2021/05/05 09:42:19;;;;;;;;;;;;;;;20.16;37.27;96795.55;1732602;80;20517;-72
2021/05/05 09:44:59;;;;;;;;;;;;;;;20.19;36.79;96794.09;1680989;83;20460;-68
2021/05/05 09:47:53;;;;;;;;;;;;;;;20.14;37.12;96797.75;1686612;83;20859;-68
2021/05/05 09:50:31;;;;;;;;;;;;;;;20.12;37.11;96789.84;1676082;83;20763;-73
2021/05/05 09:53:25;;;;;;;;;;;;;;;20.15;37.20;96782.53;1680114;83;21878;-69
2021/05/05 09:56:05;;;;;;;;;;;;;;;20.24;37.42;96780.56;1680886;83;20658;-67
2021/05/05 09:58:39;;;;;;;;;;;;;;;20.35;35.69;96771.59;1678674;83;33585;-67
2021/05/05 10:01:12;;;;;;;;;;;;;;;20.46;36.27;96774.06;1671428;84;20458;-69
2021/05/05 10:03:54;;;;;;;;;;;;;;;20.59;36.47;96770.30;1681049;83;21050;-72
2021/05/05 10:06:37;;;;;;;;;;;;;;;20.73;36.41;96770.75;1668947;84;21220;-71
2021/05/05 10:09:07;;;;;;;;;;;;;;;20.90;36.61;96776.40;1691090;82;20602;-71
2021/05/05 10:11:37;;;;;;;;;;;;;;;20.97;36.35;96771.27;1678073;83;20526;-71
2021/05/05 10:14:10;;;;;;;;;;;;;;;20.96;36.67;96770.49;1681143;83;20538;-68
2021/05/05 10:16:41;;;;;;;;;;;;;;;20.96;35.61;96767.07;1679446;83;20660;-73
2021/05/05 10:19:35;;;;;;;;;;;;;;;20.94;34.75;96770.07;1737541;80;21833;-67
2021/05/05 10:24:52;;;;;;;;;;;;;;;20.85;34.46;96771.29;1808647;76;20482;-69
2021/05/05 10:27:21;;;;;;;;;;;;;;;20.78;35.23;96770.52;1786440;77;20494;-71
2021/05/05 10:29:50;;;;;;;;;;;;;;;20.68;35.00;96766.16;1807263;77;20490;-70
2021/05/05 10:32:21;;;;;;;;;;;;;;;20.63;34.91;96765.28;1779744;77;22034;-72
2021/05/05 10:34:51;;;;;;;;;;;;;;;20.63;35.07;96761.83;1802053;77;20610;-70
2021/05/05 10:37:19;;;;;;;;;;;;;;;20.64;36.57;96759.39;1822362;77;20603;-73
2021/05/05 10:39:48;;;;;;;;;;;;;;;20.66;36.17;96758.50;1801596;77;20638;-67
2021/05/05 10:42:18;;;;;;;;;;;;;;;20.68;34.71;96756.81;1813698;76;20689;-72
2021/05/05 10:44:55;;;;;;;;;;;;;;;20.64;34.89;96758.05;1816626;76;22066;-66
2021/05/05 10:47:31;;;;;;;;;;;;;;;20.60;34.72;96761.17;1802475;76;20591;-73
2021/05/05 10:50:07;;;;;;;;;;;;;;;20.55;34.83;96754.70;1815632;76;20393;-73
2021/05/05 10:52:44;;;;;;;;;;;;;;;20.54;35.23;96765.16;1819347;76;20510;-68
2021/05/05 10:55:13;;;;;;;;;;;;;;;20.53;35.47;96763.03;1808472;76;20963;-73
2021/05/05 10:57:43;;;;;;;;;;;;;;;20.49;35.21;96757.38;1815214;76;21836;-72
2021/05/05 11:00:13;;;;;;;;;;;;;;;20.42;35.10;96761.92;1763944;77;20831;-72
2021/05/05 11:02:49;;;;;;;;;;;;;;;20.36;35.01;96754.47;1777242;77;20652;-77
2021/05/05 11:05:23;;;;;;;;;;;;;;;20.34;36.02;96752.68;1755162;78;20711;-71
2021/05/05 11:08:03;;;;;;;;;;;;;;;20.35;34.49;96750.23;1785966;77;20553;-72
2021/05/05 11:10:40;;;;;;;;;;;;;;;20.40;34.70;96751.34;1807300;77;21791;-72
2021/05/05 11:13:18;;;;;;;;;;;;;;;20.51;35.60;96753.27;1811958;76;21308;-71
2021/05/05 11:15:49;;;;;;;;;;;;;;;20.64;34.52;96755.38;1782514;77;20574;-73
2021/05/05 11:18:27;;;;;;;;;;;;;;;20.69;34.98;96749.03;1802721;76;20516;-74
2021/05/05 11:21:00;;;;;;;;;;;;;;;20.70;35.90;96750.59;1798112;77;20587;-73
2021/05/05 11:23:43;;;;;;;;;;;;;;;20.65;34.98;96747.59;1765865;79;22035;-72
2021/05/05 11:26:23;;;;;;;;;;;;;;;20.56;34.84;96748.25;1772185;79;20707;-65
2021/05/05 11:29:02;;;;;;;;;;;;;;;20.47;34.81;96750.24;1826880;77;20395;-70
2021/05/05 11:31:50;;;;;;;;;;;;;;;20.43;35.44;96746.70;1805445;76;20702;-67
2021/05/05 11:34:29;;;;;;;;;;;;;;;20.42;35.78;96749.13;1814299;77;20601;-66
2021/05/05 11:37:03;;;;;;;;;;;;;;;20.39;35.58;96747.90;1800289;76;22385;-66
2021/05/05 11:39:54;;;;;;;;;;;;;;;20.37;36.03;96745.36;1840243;76;20202;-66
2021/05/05 11:42:24;;;;;;;;;;;;;;;20.34;36.67;96746.02;1816234;76;20507;-64
2021/05/05 11:45:02;;;;;;;;;;;;;;;20.34;36.99;96744.67;1795394;76;20647;-73
2021/05/05 11:47:36;;;;;;;;;;;;;;;20.40;36.87;96742.01;1810330;76;20416;-69
2021/05/05 11:50:10;;;;;;;;;;;;;;;20.48;36.62;96740.58;1814540;76;22336;-71
2021/05/05 11:52:42;;;;;;;;;;;;;;;20.58;36.42;96740.15;1799318;76;20390;-71
2021/05/05 11:55:13;;;;;;;;;;;;;;;20.74;36.70;96738.15;1819615;76;20500;-68
2021/05/05 11:57:44;;;;;;;;;;;;;;;20.92;36.12;96742.91;1832789;77;20430;-68
2021/05/05 12:00:19;;;;;;;;;;;;;;;21.07;35.80;96744.67;1844732;77;20480;-67
2021/05/05 12:02:58;;;;;;;;;;;;;;;21.21;36.62;96734.43;1832377;76;21903;-69
2021/05/05 12:05:36;;;;;;;;;;;;;;;21.32;35.58;96732.86;1813101;77;20470;-67
2021/05/05 12:08:18;;;;;;;;;;;;;;;21.38;36.81;96727.49;1844793;77;20478;-68
2021/05/05 12:10:54;;;;;;;;;;;;;;;21.36;36.88;96724.37;1818864;77;20473;-72
2021/05/05 12:13:26;;;;;;;;;;;;;;;21.40;36.81;96730.58;1831404;77;20556;-65
2021/05/05 12:16:09;;;;;;;;;;;;;;;21.46;36.49;96724.46;1804865;78;21929;-70
2021/05/05 12:18:46;;;;;;;;;;;;;;;21.49;35.41;96718.42;1836293;76;20464;-67
2021/05/05 12:21:24;;;;;;;;;;;;;;;21.45;35.91;96717.00;1830422;76;20595;-67
2021/05/05 12:23:59;;;;;;;;;;;;;;;21.36;37.61;96719.80;1822838;76;20667;-68
2021/05/05 12:26:33;;;;;;;;;;;;;;;21.30;36.89;96711.03;1818912;77;20606;-70
2021/05/05 12:29:07;;;;;;;;;;;;;;;21.30;36.71;96709.14;1816214;76;22847;-68
2021/05/05 12:31:38;;;;;;;;;;;;;;;21.40;36.33;96706.52;1812090;78;20396;-66
2021/05/05 12:34:08;;;;;;;;;;;;;;;21.54;36.55;96705.58;1819427;76;20532;-70
2021/05/05 12:36:42;;;;;;;;;;;;;;;21.63;35.98;96702.77;1816036;77;20499;-72
2021/05/05 12:39:19;;;;;;;;;;;;;;;21.67;35.67;96696.41;1816089;76;20600;-70
2021/05/05 12:41:51;;;;;;;;;;;;;;;21.69;36.07;96695.48;1779520;79;22065;-66
2021/05/05 12:44:23;;;;;;;;;;;;;;;21.65;35.51;96690.62;1806401;77;20211;-73
2021/05/05 12:47:08;;;;;;;;;;;;;;;21.50;35.32;96695.92;1808371;76;20487;-73
2021/05/05 12:49:38;;;;;;;;;;;;;;;21.29;36.09;96690.20;1815315;77;20959;-68
2021/05/05 12:52:08;;;;;;;;;;;;;;;21.08;35.94;96688.80;1819918;77;20774;-66
2021/05/05 12:54:46;;;;;;;;;;;;;;;20.90;35.62;96685.59;1810999;77;21875;-66
2021/05/05 12:57:16;;;;;;;;;;;;;;;20.78;35.88;96681.05;1818310;76;20404;-68
2021/05/05 12:59:48;;;;;;;;;;;;;;;20.84;36.11;96676.26;1809760;77;20522;-70
2021/05/05 13:02:24;;;;;;;;;;;;;;;20.96;36.68;96681.01;1828032;76;20734;-67
2021/05/05 13:05:03;;;;;;;;;;;;;;;21.08;36.70;96672.77;1801240;76;20657;-68
2021/05/05 13:07:36;;;;;;;;;;;;;;;21.05;36.08;96666.19;1773304;79;21851;-70
2021/05/05 13:10:13;;;;;;;;;;;;;;;21.05;35.81;96663.52;1825930;76;20474;-69
2021/05/05 13:12:51;;;;;;;;;;;;;;;21.13;36.46;96661.83;1814621;77;20514;-68
2021/05/05 13:31:46;;;;;;;;;;;;;;;21.45;35.75;96651.50;1823383;76;20571;-69
2021/05/05 13:34:32;;;;;;;;;;;;;;;21.30;36.98;96650.90;1817803;77;20847;-65
2021/05/05 13:37:01;;;;;;;;;;;;;;;21.22;37.98;96645.14;1710901;81;20781;-67
2021/05/05 13:39:33;;;;;;;;;;;;;;;21.16;37.41;96640.59;1745507;80;20603;-69
2021/05/05 13:42:05;;;;;;;;;;;;;;;21.16;37.80;96634.45;1740593;79;20635;-71
2021/05/05 13:44:43;;;;;;;;;;;;;;;21.13;37.98;96639.90;1745735;81;20544;-73
2021/05/05 13:49:56;;;;;;;;;;;;;;;21.07;38.25;96636.47;1750032;79;20161;-68
2021/05/05 13:52:25;;;;;;;;;;;;;;;21.05;38.48;96635.47;1750066;79;20119;-68
2021/05/05 13:54:55;;;;;;;;;;;;;;;21.03;38.39;96641.73;1736681;79;20614;-69
2021/05/05 13:57:24;;;;;;;;;;;;;;;20.99;37.93;96645.63;1744850;79;20680;-70
2021/05/05 13:59:53;;;;;;;;;;;;;;;20.93;36.96;96641.64;1747564;79;21924;-70
2021/05/05 14:02:21;;;;;;;;;;;;;;;20.81;36.02;96635.55;1802857;76;20640;-71
2021/05/05 14:04:49;;;;;;;;;;;;;;;20.69;36.51;96630.22;1818314;77;20593;-68
2021/05/05 14:07:17;;;;;;;;;;;;;;;20.67;36.52;96632.47;1812770;76;20549;-71
